createdAt,value
2023-01-17T00:00:48.269Z,68.15
2023-01-17T00:03:14.670Z,68.45
2023-01-17T00:05:59.581Z,68.41
2023-01-17T00:08:54.913Z,68.83
2023-01-17T00:11:21.331Z,69.35
2023-01-17T00:13:47.736Z,69.56
2023-01-17T00:16:14.182Z,70.15
2023-01-17T00:19:00.590Z,69.92
2023-01-17T00:21:45.688Z,70.49
2023-01-17T00:24:30.598Z,70.93
2023-01-17T00:27:12.084Z,71.08
2023-01-17T00:29:38.471Z,71.16
2023-01-17T00:32:05.046Z,71.41
2023-01-17T00:34:31.518Z,72.12
2023-01-17T00:36:57.883Z,72.04
2023-01-17T00:39:24.247Z,72.35
2023-01-17T00:41:50.606Z,72.49
2023-01-17T00:44:35.623Z,72.36
2023-01-17T00:47:20.704Z,72.71
2023-01-17T00:50:05.816Z,72.84
2023-01-17T00:52:50.825Z,73.30
2023-01-17T00:55:35.934Z,73.87
2023-01-17T00:58:27.623Z,73.66
2023-01-17T01:01:12.788Z,74.13
2023-01-17T01:03:57.846Z,74.46
2023-01-17T01:06:42.829Z,74.57
2023-01-17T01:09:27.973Z,74.89
2023-01-17T01:12:13.094Z,75.16
2023-01-17T01:14:58.087Z,75.39
2023-01-17T01:17:42.930Z,75.76
2023-01-17T01:20:29.095Z,75.96
2023-01-17T01:23:14.300Z,75.86
2023-01-17T01:25:59.236Z,76.16
2023-01-17T01:28:44.345Z,76.27
2023-01-17T01:31:29.574Z,76.64
2023-01-17T01:33:56.014Z,76.79
2023-01-17T01:36:22.422Z,77.00
2023-01-17T01:38:50.175Z,77.01
2023-01-17T01:41:16.658Z,77.35
2023-01-17T01:43:52.005Z,77.37
2023-01-17T01:46:23.775Z,77.52
2023-01-17T01:48:55.611Z,77.57
2023-01-17T01:51:32.975Z,77.57
2023-01-17T01:54:04.657Z,77.79
2023-01-17T01:56:31.703Z,77.81
2023-01-17T01:58:58.539Z,78.30
2023-01-17T02:01:25.009Z,78.36
2023-01-17T02:03:51.879Z,78.25
2023-01-17T02:07:13.891Z,78.87
2023-01-17T02:09:40.347Z,78.54
2023-01-17T02:12:07.318Z,78.57
2023-01-17T02:14:33.774Z,78.83
2023-01-17T02:17:22.203Z,78.83
2023-01-17T02:20:36.192Z,79.20
2023-01-17T02:23:23.054Z,79.16
2023-01-17T02:26:05.993Z,79.46
2023-01-17T02:28:54.468Z,79.06
2023-01-17T02:31:32.966Z,79.42
2023-01-17T02:34:25.223Z,79.34
2023-01-17T02:37:25.745Z,79.19
2023-01-17T02:40:03.164Z,79.11
2023-01-17T02:42:42.472Z,79.24
2023-01-17T02:45:09.359Z,78.86
2023-01-17T02:47:35.800Z,78.88
2023-01-17T02:50:06.406Z,79.01
2023-01-17T02:52:55.862Z,78.77
2023-01-17T02:55:37.466Z,78.66
2023-01-17T02:58:16.719Z,78.64
2023-01-17T03:00:58.095Z,78.77
2023-01-17T03:03:33.718Z,78.87
2023-01-17T03:06:11.715Z,78.41
2023-01-17T03:08:43.622Z,78.59
2023-01-17T03:11:11.164Z,78.54
2023-01-17T03:13:37.694Z,78.10
2023-01-17T03:16:12.913Z,77.41
2023-01-17T03:18:39.433Z,77.32
2023-01-17T03:21:05.992Z,77.50
2023-01-17T03:23:32.398Z,77.37
2023-01-17T03:25:58.823Z,77.31
2023-01-17T03:28:25.206Z,77.03
2023-01-17T03:30:51.637Z,76.78
2023-01-17T03:33:18.381Z,76.82
2023-01-17T03:35:45.651Z,76.52
2023-01-17T03:38:12.051Z,75.85
2023-01-17T03:40:38.521Z,75.40
2023-01-17T03:43:04.916Z,75.51
2023-01-17T03:45:31.470Z,75.23
2023-01-17T03:47:58.997Z,74.99
2023-01-17T03:50:25.834Z,74.37
2023-01-17T03:52:52.268Z,74.28
2023-01-17T03:55:18.701Z,74.15
2023-01-17T03:57:45.158Z,74.42
2023-01-17T04:00:12.143Z,74.64
2023-01-17T04:02:38.611Z,75.03
2023-01-17T04:05:05.325Z,75.33
2023-01-17T04:07:31.749Z,75.61
2023-01-17T04:09:58.184Z,75.86
2023-01-17T04:12:24.636Z,75.77
2023-01-17T04:14:51.093Z,75.98
2023-01-17T04:17:19.060Z,76.32
2023-01-17T04:19:45.452Z,76.40
2023-01-17T04:22:11.891Z,76.76
2023-01-17T04:24:38.346Z,76.88
2023-01-17T04:27:05.462Z,76.99
2023-01-17T04:29:32.035Z,76.87
2023-01-17T04:31:58.460Z,76.92
2023-01-17T04:34:24.958Z,77.03
2023-01-17T04:36:51.388Z,76.84
2023-01-17T04:39:17.860Z,76.88
2023-01-17T04:41:44.266Z,76.48
2023-01-17T04:44:10.742Z,76.54
2023-01-17T04:46:37.166Z,76.38
2023-01-17T04:49:03.586Z,76.70
2023-01-17T04:51:29.982Z,76.36
2023-01-17T04:53:56.442Z,76.69
2023-01-17T04:56:22.851Z,76.71
2023-01-17T04:58:49.348Z,76.47
2023-01-17T05:01:15.929Z,76.48
2023-01-17T05:03:42.360Z,76.02
2023-01-17T05:06:08.803Z,76.17
2023-01-17T05:08:35.231Z,76.11
2023-01-17T05:11:01.657Z,76.08
2023-01-17T05:13:28.054Z,75.80
2023-01-17T05:15:56.440Z,75.82
2023-01-17T05:18:22.896Z,76.16
2023-01-17T05:20:49.383Z,76.16
2023-01-17T05:23:15.982Z,76.00
2023-01-17T05:25:44.258Z,76.22
2023-01-17T05:28:14.169Z,75.83
2023-01-17T05:30:40.673Z,76.14
2023-01-17T05:33:08.141Z,76.26
2023-01-17T05:35:34.570Z,76.56
2023-01-17T05:38:01.203Z,76.90
2023-01-17T05:40:29.435Z,77.11
2023-01-17T05:42:57.756Z,77.01
2023-01-17T05:45:26.123Z,76.55
2023-01-17T05:47:54.511Z,76.57
2023-01-17T05:50:26.524Z,76.76
2023-01-17T05:52:55.315Z,76.27
2023-01-17T05:55:22.438Z,75.86
2023-01-17T05:57:48.833Z,76.11
2023-01-17T06:00:16.329Z,76.25
2023-01-17T06:02:43.311Z,75.85
2023-01-17T06:05:10.219Z,75.53
2023-01-17T06:07:36.624Z,75.88
2023-01-17T06:10:03.165Z,76.12
2023-01-17T06:12:29.576Z,75.96
2023-01-17T06:14:56.008Z,76.17
2023-01-17T06:17:22.445Z,75.79
2023-01-17T06:19:48.869Z,76.11
2023-01-17T06:22:15.265Z,76.36
2023-01-17T06:24:41.682Z,76.39
2023-01-17T06:27:11.170Z,76.46
2023-01-17T06:29:37.840Z,76.12
2023-01-17T06:32:04.611Z,76.63
2023-01-17T06:34:31.274Z,76.38
2023-01-17T06:36:57.971Z,76.14
2023-01-17T06:39:24.418Z,76.83
2023-01-17T06:41:50.856Z,76.68
2023-01-17T06:44:17.268Z,76.52
2023-01-17T06:46:45.035Z,76.13
2023-01-17T06:49:11.562Z,75.80
2023-01-17T06:51:37.987Z,76.02
2023-01-17T06:54:04.397Z,75.75
2023-01-17T06:56:31.986Z,76.01
2023-01-17T06:58:58.434Z,75.01
2023-01-17T07:01:25.415Z,75.40
2023-01-17T07:03:52.500Z,75.28
2023-01-17T07:06:19.201Z,75.18
2023-01-17T07:08:45.660Z,74.67
2023-01-17T07:11:12.121Z,74.25
2023-01-17T07:13:38.924Z,73.97
2023-01-17T07:16:06.300Z,74.50
2023-01-17T07:18:33.573Z,74.26
2023-01-17T07:21:00.248Z,74.27
2023-01-17T07:23:27.074Z,74.40
2023-01-17T07:25:55.160Z,74.50
2023-01-17T07:28:21.893Z,74.61
2023-01-17T07:30:48.465Z,75.34
2023-01-17T07:33:15.138Z,76.52
2023-01-17T07:35:41.831Z,77.98
2023-01-17T07:38:16.938Z,79.24
2023-01-17T07:40:43.478Z,79.51
2023-01-17T07:43:16.590Z,80.12
2023-01-17T07:45:50.482Z,80.71
2023-01-17T07:48:18.161Z,81.19
2023-01-17T07:50:44.647Z,81.29
2023-01-17T07:53:11.163Z,81.73
2023-01-17T07:55:37.729Z,82.31
2023-01-17T07:58:04.114Z,83.16
2023-01-17T08:00:30.726Z,83.41
2023-01-17T08:02:58.611Z,84.17
2023-01-17T08:05:25.566Z,83.87
2023-01-17T08:07:52.242Z,84.42
2023-01-17T08:10:18.953Z,84.07
2023-01-17T08:12:47.034Z,84.64
2023-01-17T08:15:14.398Z,84.46
2023-01-17T08:17:48.232Z,85.42
2023-01-17T08:20:16.069Z,85.10
2023-01-17T08:22:42.639Z,85.80
2023-01-17T08:25:09.486Z,85.35
2023-01-17T08:27:36.393Z,85.64
2023-01-17T08:30:03.544Z,85.48
2023-01-17T08:32:29.952Z,85.69
2023-01-17T08:34:57.214Z,86.00
2023-01-17T08:37:23.900Z,85.80
2023-01-17T08:39:50.550Z,84.86
2023-01-17T08:42:17.260Z,84.80
2023-01-17T08:44:44.082Z,85.33
2023-01-17T08:47:10.510Z,85.02
2023-01-17T08:49:37.022Z,84.69
2023-01-17T08:52:03.817Z,84.43
2023-01-17T08:54:30.261Z,84.40
2023-01-17T08:56:56.746Z,84.65
2023-01-17T08:59:23.168Z,84.83
2023-01-17T09:01:49.754Z,84.51
2023-01-17T09:04:16.343Z,83.69
2023-01-17T09:06:45.340Z,84.65
2023-01-17T09:09:11.893Z,84.31
2023-01-17T09:11:38.433Z,84.31
2023-01-17T09:14:04.911Z,84.22
2023-01-17T09:16:31.362Z,83.68
2023-01-17T09:18:58.556Z,83.81
2023-01-17T09:21:25.983Z,83.47
2023-01-17T09:23:52.778Z,83.14
2023-01-17T09:26:23.034Z,83.24
2023-01-17T09:28:50.200Z,82.77
2023-01-17T09:31:17.820Z,82.77
2023-01-17T09:33:44.345Z,81.75
2023-01-17T09:36:10.977Z,82.02
2023-01-17T09:38:37.860Z,81.36
2023-01-17T09:41:15.733Z,81.19
2023-01-17T09:43:49.444Z,80.96
2023-01-17T09:46:29.808Z,80.58
2023-01-17T09:49:06.067Z,79.96
2023-01-17T09:51:32.939Z,79.80
2023-01-17T09:54:00.312Z,79.59
2023-01-17T09:56:38.853Z,78.77
2023-01-17T09:59:32.229Z,79.31
2023-01-17T10:02:19.069Z,79.24
2023-01-17T10:05:16.427Z,78.36
2023-01-17T10:08:04.626Z,78.27
2023-01-17T10:10:41.974Z,78.04
2023-01-17T10:13:25.490Z,78.32
2023-01-17T10:16:12.670Z,77.71
2023-01-17T10:19:04.305Z,77.62
2023-01-17T10:22:02.743Z,77.18
2023-01-17T10:25:04.538Z,77.25
2023-01-17T10:27:37.169Z,77.49
2023-01-17T10:30:13.724Z,77.04
2023-01-17T10:32:42.554Z,76.99
2023-01-17T10:35:18.592Z,76.33
2023-01-17T10:37:45.473Z,76.39
2023-01-17T10:40:23.023Z,76.05
2023-01-17T10:42:58.082Z,75.49
2023-01-17T10:45:28.692Z,75.29
2023-01-17T10:48:04.816Z,74.87
2023-01-17T10:50:41.247Z,74.92
2023-01-17T10:53:10.940Z,74.24
2023-01-17T10:55:53.316Z,73.90
2023-01-17T10:58:19.840Z,73.04
2023-01-17T11:00:54.076Z,73.27
2023-01-17T11:03:21.091Z,72.56
2023-01-17T11:06:23.204Z,72.25
2023-01-17T11:09:00.984Z,71.37
2023-01-17T11:11:32.984Z,71.15
2023-01-17T11:14:01.570Z,70.97
2023-01-17T11:16:32.430Z,70.22
2023-01-17T11:19:21.516Z,70.49
2023-01-17T11:21:53.692Z,70.48
2023-01-17T11:24:26.385Z,69.66
2023-01-17T11:26:52.819Z,69.40
2023-01-17T11:29:30.759Z,69.42
2023-01-17T11:31:57.527Z,69.38
2023-01-17T11:34:26.430Z,68.29
2023-01-17T11:37:18.479Z,67.91
2023-01-17T11:39:48.083Z,67.83
2023-01-17T11:42:34.663Z,67.74
2023-01-17T11:45:27.016Z,67.93
2023-01-17T11:48:12.677Z,67.59
2023-01-17T11:50:41.848Z,67.16
2023-01-17T11:53:24.825Z,66.54
2023-01-17T11:56:07.745Z,66.85
2023-01-17T11:58:36.201Z,65.93
2023-01-17T12:01:23.847Z,65.95
2023-01-17T12:04:00.794Z,65.75
2023-01-17T12:06:57.304Z,65.81
2023-01-17T12:09:49.100Z,64.94
2023-01-17T12:12:47.849Z,64.60
2023-01-17T12:15:32.373Z,64.17
2023-01-17T12:18:13.916Z,63.81
2023-01-17T12:20:58.785Z,63.84
2023-01-17T12:23:31.617Z,63.90
2023-01-17T12:26:10.552Z,64.31
2023-01-17T12:29:10.895Z,63.50
2023-01-17T12:31:49.745Z,63.29
2023-01-17T12:34:30.246Z,63.04
2023-01-17T12:37:15.995Z,63.05
2023-01-17T12:40:02.382Z,62.62
2023-01-17T12:42:34.321Z,62.58
2023-01-17T12:45:21.463Z,62.54
2023-01-17T12:47:54.457Z,62.53
2023-01-17T12:50:33.820Z,62.50
2023-01-17T12:53:18.722Z,62.44
2023-01-17T12:56:02.727Z,62.20
2023-01-17T12:58:41.630Z,61.88
2023-01-17T13:01:43.101Z,61.83
2023-01-17T13:04:21.147Z,62.15
2023-01-17T13:07:05.197Z,61.65
2023-01-17T13:09:38.001Z,61.73
2023-01-17T13:12:07.294Z,61.29
2023-01-17T13:14:33.709Z,60.87
2023-01-17T13:17:24.484Z,60.78
2023-01-17T13:20:17.294Z,60.98
2023-01-17T13:22:44.200Z,61.59
2023-01-17T13:25:34.994Z,60.98
2023-01-17T13:28:14.881Z,61.10
2023-01-17T13:30:54.713Z,60.96
2023-01-17T13:33:39.978Z,60.69
2023-01-17T13:36:40.758Z,60.55
2023-01-17T13:39:25.454Z,59.91
2023-01-17T13:41:56.771Z,59.41
2023-01-17T13:44:25.967Z,58.69
2023-01-17T13:47:04.144Z,58.68
2023-01-17T13:49:31.542Z,58.24
2023-01-17T13:52:12.235Z,58.19
2023-01-17T13:54:50.226Z,58.39
2023-01-17T13:57:27.910Z,58.10
2023-01-17T13:59:57.536Z,58.12
2023-01-17T14:02:32.992Z,57.91
2023-01-17T14:05:21.157Z,57.40
2023-01-17T14:07:59.491Z,57.71
2023-01-17T14:10:40.881Z,58.03
2023-01-17T14:13:37.656Z,58.63
2023-01-17T14:16:25.662Z,58.56
2023-01-17T14:18:53.100Z,58.92
2023-01-17T14:21:23.572Z,57.83
2023-01-17T14:24:10.354Z,57.39
2023-01-17T14:26:58.925Z,56.49
2023-01-17T14:29:53.884Z,56.49
2023-01-17T14:32:23.118Z,56.42
2023-01-17T14:34:51.348Z,56.20
2023-01-17T14:37:32.899Z,55.85
2023-01-17T14:40:00.786Z,55.71
2023-01-17T14:42:29.552Z,55.14
2023-01-17T14:45:01.268Z,55.40
2023-01-17T14:47:31.625Z,55.88
2023-01-17T14:50:24.839Z,55.60
2023-01-17T14:53:13.011Z,55.95
2023-01-17T14:55:48.458Z,55.97
2023-01-17T14:58:17.580Z,56.24
2023-01-17T15:00:44.139Z,55.99
2023-01-17T15:03:11.837Z,55.98
2023-01-17T15:05:40.947Z,56.51
2023-01-17T15:08:14.776Z,56.81
2023-01-17T15:10:58.360Z,57.15
2023-01-17T15:13:43.389Z,57.13
2023-01-17T15:16:22.259Z,57.20
2023-01-17T15:18:49.016Z,57.60
2023-01-17T15:21:20.620Z,57.23
2023-01-17T15:23:50.409Z,57.16
2023-01-17T15:26:18.425Z,57.28
2023-01-17T15:28:45.283Z,57.35
2023-01-17T15:31:44.843Z,57.64
2023-01-17T15:34:31.148Z,57.56
2023-01-17T15:37:00.541Z,58.01
2023-01-17T15:39:32.282Z,57.99
2023-01-17T15:42:00.988Z,58.43
2023-01-17T15:44:47.367Z,58.86
2023-01-17T15:47:28.687Z,58.88
2023-01-17T15:49:55.161Z,59.20
2023-01-17T15:52:21.763Z,59.25
2023-01-17T15:54:59.445Z,59.78
2023-01-17T15:57:33.431Z,59.83
2023-01-17T16:00:08.606Z,59.85
2023-01-17T16:02:58.676Z,60.39
2023-01-17T16:05:25.699Z,60.50
2023-01-17T16:07:53.803Z,60.75
2023-01-17T16:10:22.544Z,61.10
2023-01-17T16:12:51.247Z,60.95
2023-01-17T16:15:18.608Z,60.97
2023-01-17T16:17:47.460Z,61.36
2023-01-17T16:20:20.600Z,61.72
2023-01-17T16:22:47.698Z,61.73
2023-01-17T16:25:19.743Z,62.13
2023-01-17T16:27:46.616Z,62.34
2023-01-17T16:30:18.396Z,62.41
2023-01-17T16:32:49.263Z,62.57
2023-01-17T16:35:24.735Z,62.47
2023-01-17T16:37:53.249Z,62.44
2023-01-17T16:40:21.072Z,62.50
2023-01-17T16:42:47.884Z,62.97
2023-01-17T16:45:14.352Z,62.78
2023-01-17T16:47:42.047Z,63.17
2023-01-17T16:50:11.114Z,62.69
2023-01-17T16:52:37.593Z,62.86
2023-01-17T16:55:06.711Z,63.29
2023-01-17T16:57:33.139Z,63.38
2023-01-17T16:59:59.638Z,63.41
2023-01-17T17:02:26.163Z,63.37
2023-01-17T17:04:52.654Z,63.68
2023-01-17T17:07:19.087Z,64.03
2023-01-17T17:09:45.492Z,63.61
2023-01-17T17:12:11.912Z,64.24
2023-01-17T17:14:38.350Z,63.60
2023-01-17T17:17:04.862Z,64.48
2023-01-17T17:19:31.256Z,64.64
2023-01-17T17:21:58.676Z,64.77
2023-01-17T17:24:25.109Z,65.10
2023-01-17T17:26:51.626Z,64.49
2023-01-17T17:29:18.082Z,64.57
2023-01-17T17:31:44.680Z,64.88
2023-01-17T17:34:13.035Z,64.70
2023-01-17T17:36:39.751Z,64.99
2023-01-17T17:39:09.153Z,64.81
2023-01-17T17:41:36.582Z,65.24
2023-01-17T17:44:03.947Z,65.35
2023-01-17T17:46:30.988Z,65.52
2023-01-17T17:48:58.286Z,65.40
2023-01-17T17:51:29.715Z,65.32
2023-01-17T17:54:01.123Z,65.59
2023-01-17T17:56:28.765Z,65.81
2023-01-17T17:58:56.747Z,66.31
2023-01-17T18:01:24.071Z,66.04
2023-01-17T18:03:55.983Z,66.26
2023-01-17T18:06:23.026Z,66.13
2023-01-17T18:08:51.792Z,66.04
2023-01-17T18:11:21.283Z,66.18
2023-01-17T18:13:50.398Z,66.44
2023-01-17T18:16:19.888Z,66.71
2023-01-17T18:18:51.704Z,66.79
2023-01-17T18:21:27.828Z,66.59
2023-01-17T18:24:01.755Z,66.74
2023-01-17T18:26:34.125Z,66.26
2023-01-17T18:29:01.343Z,66.67
2023-01-17T18:31:28.542Z,66.80
2023-01-17T18:33:56.159Z,67.17
2023-01-17T18:36:23.703Z,67.26
2023-01-17T18:38:51.648Z,67.40
2023-01-17T18:41:26.637Z,67.38
2023-01-17T18:43:53.439Z,67.44
2023-01-17T18:46:20.044Z,67.62
2023-01-17T18:48:46.503Z,67.75
2023-01-17T18:51:14.974Z,67.36
2023-01-17T18:53:42.683Z,67.57
2023-01-17T18:56:11.634Z,67.60
2023-01-17T18:58:41.670Z,67.53
2023-01-17T19:01:18.619Z,67.68
2023-01-17T19:03:46.873Z,67.88
2023-01-17T19:06:18.493Z,68.26
2023-01-17T19:08:45.166Z,67.89
2023-01-17T19:11:12.370Z,68.19
2023-01-17T19:13:39.332Z,68.31
2023-01-17T19:16:08.901Z,67.86
2023-01-17T19:18:35.298Z,67.69
2023-01-17T19:21:10.471Z,67.45
2023-01-17T19:23:37.738Z,67.46
2023-01-17T19:26:05.992Z,67.77
2023-01-17T19:28:35.428Z,68.00
2023-01-17T19:31:10.052Z,68.53
2023-01-17T19:33:37.654Z,68.33
2023-01-17T19:36:06.014Z,68.55
2023-01-17T19:38:34.380Z,68.62
2023-01-17T19:41:14.016Z,68.43
2023-01-17T19:43:42.008Z,68.90
2023-01-17T19:46:09.346Z,68.96
2023-01-17T19:48:36.729Z,68.88
2023-01-17T19:51:08.141Z,68.64
2023-01-17T19:53:35.946Z,69.07
2023-01-17T19:56:20.194Z,68.93
2023-01-17T19:58:47.128Z,68.93
2023-01-17T20:01:15.697Z,69.09
2023-01-17T20:03:44.134Z,68.85
2023-01-17T20:06:12.397Z,68.86
2023-01-17T20:08:38.856Z,69.07
2023-01-17T20:11:07.388Z,68.90
2023-01-17T20:13:33.907Z,69.25
2023-01-17T20:16:08.537Z,69.39
2023-01-17T20:18:35.630Z,69.56
2023-01-17T20:21:03.944Z,69.64
2023-01-17T20:23:35.121Z,69.77
2023-01-17T20:26:03.381Z,69.84
2023-01-17T20:28:31.350Z,70.20
2023-01-17T20:31:04.788Z,69.97
2023-01-17T20:33:31.227Z,69.84
2023-01-17T20:36:10.597Z,69.46
2023-01-17T20:38:44.617Z,69.53
2023-01-17T20:41:22.746Z,69.60
2023-01-17T20:43:51.287Z,69.78
2023-01-17T20:46:19.204Z,69.57
2023-01-17T20:48:47.287Z,69.52
2023-01-17T20:51:14.899Z,69.34
2023-01-17T20:53:42.317Z,69.47
2023-01-17T20:56:09.498Z,69.39
2023-01-17T20:58:35.928Z,69.27
2023-01-17T21:01:02.408Z,69.38
2023-01-17T21:03:29.254Z,69.76
2023-01-17T21:06:07.659Z,70.06
2023-01-17T21:08:36.119Z,69.87
2023-01-17T21:11:02.556Z,69.65
2023-01-17T21:13:28.989Z,69.93
2023-01-17T21:15:55.655Z,70.01
2023-01-17T21:18:23.641Z,70.39
2023-01-17T21:20:50.466Z,70.63
2023-01-17T21:23:20.123Z,70.67
2023-01-17T21:25:54.788Z,70.64
2023-01-17T21:28:23.158Z,71.16
2023-01-17T21:30:52.447Z,71.21
2023-01-17T21:33:20.043Z,71.15
2023-01-17T21:35:46.619Z,71.21
2023-01-17T21:38:16.444Z,71.43
2023-01-17T21:40:43.570Z,71.60
2023-01-17T21:43:10.579Z,72.01
2023-01-17T21:45:41.477Z,71.68
2023-01-17T21:48:12.200Z,71.64
2023-01-17T21:50:39.287Z,71.28
2023-01-17T21:53:05.910Z,71.10
2023-01-17T21:55:50.983Z,70.95
2023-01-17T21:58:36.627Z,70.98
2023-01-17T22:01:15.933Z,71.15
2023-01-17T22:03:42.793Z,70.97
2023-01-17T22:06:10.224Z,71.40
2023-01-17T22:08:37.315Z,71.32
2023-01-17T22:11:09.098Z,71.40
2023-01-17T22:13:35.848Z,71.39
2023-01-17T22:16:05.248Z,71.61
2023-01-17T22:18:33.684Z,71.24
2023-01-17T22:21:04.234Z,71.18
2023-01-17T22:23:30.825Z,71.44
2023-01-17T22:26:09.659Z,71.90
2023-01-17T22:28:36.786Z,71.84
2023-01-17T22:31:08.827Z,71.68
2023-01-17T22:33:39.193Z,71.46
2023-01-17T22:36:06.449Z,71.46
2023-01-17T22:38:33.513Z,71.26
2023-01-17T22:41:16.569Z,71.02
2023-01-17T22:43:45.208Z,70.94
2023-01-17T22:46:14.150Z,70.88
2023-01-17T22:48:41.096Z,70.81
2023-01-17T22:51:10.121Z,70.72
2023-01-17T22:53:41.379Z,70.86
2023-01-17T22:56:10.025Z,70.57
2023-01-17T22:58:36.668Z,70.88
2023-01-17T23:01:08.037Z,70.49
2023-01-17T23:03:34.971Z,70.80
2023-01-17T23:06:16.081Z,71.26
2023-01-17T23:08:44.413Z,71.15
2023-01-17T23:11:42.249Z,71.62
2023-01-17T23:14:10.243Z,71.27
2023-01-17T23:16:56.477Z,71.58
2023-01-17T23:19:23.138Z,71.73
2023-01-17T23:22:14.396Z,71.74
2023-01-17T23:24:45.373Z,71.81
2023-01-17T23:27:39.644Z,72.18
2023-01-17T23:30:11.756Z,71.94
2023-01-17T23:32:39.417Z,72.60
2023-01-17T23:35:06.644Z,72.09
2023-01-17T23:37:51.676Z,72.55
2023-01-17T23:40:18.309Z,72.17
2023-01-17T23:43:03.369Z,72.28
2023-01-17T23:45:29.851Z,72.39
2023-01-17T23:47:56.351Z,72.37
2023-01-17T23:50:22.795Z,72.24
2023-01-17T23:52:49.195Z,71.86
2023-01-17T23:55:15.703Z,72.38
2023-01-17T23:57:42.104Z,71.88
